Bjerringbro, Denmark
Current Conditions -  °F | °C
As of 4:54 PM on Saturday 20 Dec 2014 (Local Time) from EKKA Reporting Station
Scattered Clouds Scattered Clouds  
Wind Chill:   Ceiling: Unl
Heat Index:   Visibility: 6mi
Dew Point:   Wind: 21mph
Humidity: 76%   Direction: 310°NW
Pressure: 29.56"   Gusts: NA
Location:  56.38°N, 9.66°E
Report Text: EKKA 201554Z 31018KT 9999 FEW020CB SCT030 06/02 Q1001
Loading
Personal Weather Stations






























Interactive Weather Map New forecast layout! Learn more

10-Day Weather Forecast

Advertisements
Track Severe Weather on mobile